METAR Data
IDs: Format: Raw Decoded Include TAF

Data at: 0959 UTC 23 Jan 2019

METAR for:KRYW (Lago Vista/Allen Arp, TX, US)
Text:KRYW 230955Z AUTO 34013G22KT 10SM OVC100 03/M06 A3015 RMK AO2 T00301059
Temperature: 3.0°C ( 37°F)
Dewpoint: -5.9°C ( 21°F) [RH = 52%]
Pressure (altimeter):30.15 inches Hg (1021.1 mb)
Winds:from the NNW (340 degrees) at 15 MPH (13 knots; 6.7 m/s) gusting to 25 MPH (22 knots; 11.3 m/s)
Visibility:10 or more sm (16+ km)
Ceiling:10000 feet AGL
Clouds: overcast cloud deck at 10000 feet AGL
QC Flag:automated observation with no human augmentation